Cleveland, OH

10:15 PM EDT on August 29, 2014 (GMT -0400)
Cleveland-Hopkins International | Change Station
CLOSE
Current Station
Airport
Location: Cleveland,
Elevation: 804 ft
Nearby Weather Stations

Elev 804 ft 41.40 °N, 81.85 °W | Updated 24 minutes ago

Clear
Clear
70 °F
Feels Like 70 °F
N
6
Wind Variable Wind from SE

Today
High -- | Low -- °F
--% Chance of Precip.
Yesterday
High -- | Low -- °F
Precip. -- in
6:50 AM 8:05 PM
Waxing Crescent, 18% visible
Pressure 30.08 in
Visibility 10.0 miles
Clouds Clear
Dew Point 53 °F
Humidity 55%
Rainfall 0.00 in
Snow Depth Not available.
UV 0 out of 12
Pollen 10.00 out of 12
Ozone Good
PM2.5 Moderate
Flu Activity Not available.
METAR KCLE 300151Z 13005KT 10SM CLR 21/12 A3008 RMK AO2 SLP184 T02110117

More Conditions Fewer Conditions

Pressure 30.08 in
Visibility 10.0 miles
Clouds Clear
Dew Point 53 °F
Humidity 55%
Rainfall 0.00 in
Snow Depth Not available.
UV 0 out of 12
Pollen 10.00 out of 12
Ozone Good
PM2.5 Moderate
Flu Activity Not available.
METAR KCLE 300151Z 13005KT 10SM CLR 21/12 A3008 RMK AO2 SLP184 T02110117

More Conditions Fewer Conditions

10-Day Weather Forecast

Almanac

Astronomy

Aug. 29, 2014 Rise Set
Actual Time 6:50 AM EDT 8:05 PM EDT
Civil Twilight 6:21 AM EDT 8:33 PM EDT
Nautical Twilight 5:47 AM EDT 9:07 PM EDT
Astronomical Twilight 5:11 AM EDT 9:43 PM EDT
Moon 10:41 AM EDT (8/29) 9:58 PM EDT (8/29)
Length of Visible Light 14h 11m
Length of Day
13h 14m
Tomorrow will be 2m 38s shorter.
Waxing Crescent, 18% of the Moon is Illuminated
Today
Waxing Crescent
Sep 2
First Quarter
Sep 8
Full
Sep 15
Last Quarter
Sep 24
New

Today's Extremes

State Highs State Lows

Community

WunderPhotos

Upload Photos

1,748,405 photos uploaded!

Nearby

Air Quality

  Air Quality AQ Index Pollutant
Yesterday Good
OZONE
Yesterday Good
PM10
Current Moderate
PM2.5
Current Good
OZONE
Friday Moderate
PM2.5
Friday Good
OZONE
Saturday Moderate
PM2.5
Saturday Good
OZONE
Sunday Good
PM2.5
Sunday Good
OZONE
Monday Good
PM2.5
Monday Good
OZONE
Tuesday Good
PM2.5
Tuesday Good
OZONE

Snow Depth

Station Depth Elevation
No new snow has been reported.

Earthquake Activity

City Distance Mag. Time & Date
No recent earthquake activity has been reported nearby.
Minimum magnitude displayed is 2.5.

Coastal Water Temperatures

Place Temperature
Cleveland, OH 72.0 °F
Fairport, OH 73.9 °F

Nearby Weather Stations